createdAt,value
2022-12-08T00:01:26.619Z,0.74
2022-12-08T00:03:55.408Z,0.75
2022-12-08T00:06:44.691Z,0.77
2022-12-08T00:09:25.756Z,0.79
2022-12-08T00:11:59.933Z,0.74
2022-12-08T00:14:38.425Z,0.70
2022-12-08T00:17:07.670Z,0.68
2022-12-08T00:19:35.117Z,0.69
2022-12-08T00:22:03.338Z,0.70
2022-12-08T00:24:32.744Z,0.67
2022-12-08T00:26:59.886Z,0.67
2022-12-08T00:29:27.468Z,0.65
2022-12-08T00:31:54.878Z,0.63
2022-12-08T00:34:22.272Z,0.62
2022-12-08T00:36:49.419Z,0.64
2022-12-08T00:39:17.662Z,0.63
2022-12-08T00:42:03.951Z,0.65
2022-12-08T00:44:31.198Z,0.64
2022-12-08T00:46:58.417Z,0.64
2022-12-08T00:49:25.691Z,0.59
2022-12-08T00:51:52.928Z,0.53
2022-12-08T00:54:22.958Z,0.54
2022-12-08T00:56:50.637Z,0.56
2022-12-08T00:59:19.018Z,0.57
2022-12-08T01:01:47.771Z,0.54
2022-12-08T01:04:17.363Z,0.60
2022-12-08T01:06:45.017Z,0.63
2022-12-08T01:09:14.554Z,0.59
2022-12-08T01:11:42.298Z,0.54
2022-12-08T01:14:09.498Z,0.52
2022-12-08T01:16:37.193Z,0.55
2022-12-08T01:19:04.696Z,0.56
2022-12-08T01:21:32.698Z,0.54
2022-12-08T01:24:00.855Z,0.51
2022-12-08T01:26:28.000Z,0.52
2022-12-08T01:28:55.302Z,0.50
2022-12-08T01:31:23.389Z,0.59
2022-12-08T01:33:51.030Z,0.59
2022-12-08T01:36:29.962Z,0.54
2022-12-08T01:38:59.492Z,0.56
2022-12-08T01:41:29.588Z,0.60
2022-12-08T01:44:02.495Z,0.47
2022-12-08T01:46:32.810Z,0.52
2022-12-08T01:49:09.059Z,0.53
2022-12-08T01:51:43.745Z,0.37
2022-12-08T01:54:12.637Z,0.30
2022-12-08T01:56:46.911Z,0.35
2022-12-08T01:59:14.472Z,0.49
2022-12-08T02:01:41.772Z,0.40
2022-12-08T02:04:10.599Z,0.27
2022-12-08T02:06:41.956Z,0.24
2022-12-08T02:09:09.887Z,0.31
2022-12-08T02:11:37.249Z,0.27
2022-12-08T02:14:08.727Z,0.39
2022-12-08T02:17:07.778Z,0.35
2022-12-08T02:20:09.170Z,0.22
2022-12-08T02:22:51.185Z,0.23
2022-12-08T02:25:44.747Z,0.17
2022-12-08T02:28:43.329Z,0.19
2022-12-08T02:31:25.580Z,0.22
2022-12-08T02:34:07.910Z,0.15
2022-12-08T02:36:57.383Z,0.14
2022-12-08T02:39:44.380Z,0.24
2022-12-08T02:42:47.074Z,0.30
2022-12-08T02:45:22.764Z,0.42
2022-12-08T02:47:51.074Z,0.44
2022-12-08T02:50:18.937Z,0.59
2022-12-08T02:52:46.822Z,0.48
2022-12-08T02:55:28.079Z,0.49
2022-12-08T02:58:29.144Z,0.53
2022-12-08T03:01:14.849Z,0.50
2022-12-08T03:04:17.993Z,0.44
2022-12-08T03:07:13.646Z,0.54
2022-12-08T03:10:24.720Z,0.54
2022-12-08T03:13:08.269Z,0.48
2022-12-08T03:15:38.038Z,0.46
2022-12-08T03:18:09.642Z,0.38
2022-12-08T03:20:39.959Z,0.45
2022-12-08T03:23:10.932Z,0.42
2022-12-08T03:25:48.662Z,0.42
2022-12-08T03:28:15.817Z,0.42
2022-12-08T03:30:47.485Z,0.44
2022-12-08T03:33:27.739Z,0.43
2022-12-08T03:35:55.728Z,0.34
2022-12-08T03:38:23.216Z,0.57
2022-12-08T03:41:10.474Z,0.70
2022-12-08T03:43:37.709Z,0.74
2022-12-08T03:46:05.039Z,0.71
2022-12-08T03:48:32.253Z,0.69
2022-12-08T03:50:59.462Z,0.73
2022-12-08T03:53:26.933Z,0.74
2022-12-08T03:55:54.497Z,0.78
2022-12-08T03:58:21.687Z,0.86
2022-12-08T04:00:48.906Z,0.92
2022-12-08T04:03:16.150Z,0.82
2022-12-08T04:05:43.456Z,0.75
2022-12-08T04:08:10.709Z,0.81
2022-12-08T04:10:37.946Z,0.87
2022-12-08T04:13:05.170Z,0.73
2022-12-08T04:15:32.379Z,0.75
2022-12-08T04:17:59.708Z,0.85
2022-12-08T04:20:26.889Z,0.82
2022-12-08T04:22:54.055Z,0.84
2022-12-08T04:25:21.264Z,0.83
2022-12-08T04:27:48.474Z,0.72
2022-12-08T04:30:15.728Z,0.67
2022-12-08T04:32:47.180Z,0.75
2022-12-08T04:35:14.934Z,0.72
2022-12-08T04:37:43.363Z,0.74
2022-12-08T04:40:12.023Z,0.65
2022-12-08T04:42:39.418Z,0.63
2022-12-08T04:45:06.975Z,0.63
2022-12-08T04:47:34.583Z,0.65
2022-12-08T04:50:02.245Z,0.65
2022-12-08T04:52:30.125Z,0.69
2022-12-08T04:54:57.568Z,0.63
2022-12-08T04:57:24.870Z,0.60
2022-12-08T04:59:52.305Z,0.56
2022-12-08T05:02:19.653Z,0.50
2022-12-08T05:04:47.625Z,0.48
2022-12-08T05:07:14.733Z,0.51
2022-12-08T05:09:41.827Z,0.54
2022-12-08T05:12:09.139Z,0.49
2022-12-08T05:14:36.466Z,0.58
2022-12-08T05:17:09.313Z,0.59
2022-12-08T05:19:37.207Z,0.61
2022-12-08T05:22:04.482Z,0.69
2022-12-08T05:24:31.664Z,0.62
2022-12-08T05:26:58.888Z,0.58
2022-12-08T05:29:26.288Z,0.55
2022-12-08T05:31:53.663Z,0.53
2022-12-08T05:34:21.107Z,0.55
2022-12-08T05:36:48.346Z,0.44
2022-12-08T05:39:16.018Z,0.35
2022-12-08T05:41:43.203Z,0.27
2022-12-08T05:44:10.555Z,0.38
2022-12-08T05:46:37.813Z,0.50
2022-12-08T05:49:05.185Z,0.62
2022-12-08T05:51:32.945Z,0.53
2022-12-08T05:54:00.231Z,0.54
2022-12-08T05:56:27.512Z,0.41
2022-12-08T05:58:54.743Z,0.42
2022-12-08T06:01:30.575Z,0.44
2022-12-08T06:04:00.073Z,0.32
2022-12-08T06:06:27.882Z,0.28
2022-12-08T06:08:55.181Z,0.32
2022-12-08T06:11:25.464Z,0.26
2022-12-08T06:13:52.992Z,0.21
2022-12-08T06:16:20.532Z,0.27
2022-12-08T06:18:47.831Z,0.35
2022-12-08T06:21:16.548Z,0.43
2022-12-08T06:23:44.472Z,0.50
2022-12-08T06:26:14.927Z,0.61
2022-12-08T06:28:43.066Z,0.72
2022-12-08T06:31:11.644Z,0.65
2022-12-08T06:33:38.873Z,0.59
2022-12-08T06:36:06.916Z,0.70
2022-12-08T06:38:36.353Z,0.73
2022-12-08T06:41:07.288Z,0.79
2022-12-08T06:43:34.679Z,0.75
2022-12-08T06:46:04.799Z,0.70
2022-12-08T06:48:32.142Z,0.64
2022-12-08T06:51:17.016Z,0.63
2022-12-08T06:53:45.618Z,0.72
2022-12-08T06:56:15.814Z,0.76
2022-12-08T06:58:46.196Z,0.77
2022-12-08T07:01:17.772Z,0.81
2022-12-08T07:03:45.091Z,0.82
2022-12-08T07:06:19.680Z,0.98
2022-12-08T07:08:46.941Z,0.99
2022-12-08T07:11:20.962Z,0.96
2022-12-08T07:13:49.398Z,0.93
2022-12-08T07:16:16.802Z,0.79
2022-12-08T07:18:44.221Z,0.74
2022-12-08T07:21:13.350Z,0.71
2022-12-08T07:23:41.234Z,0.73
2022-12-08T07:26:11.437Z,0.65
2022-12-08T07:28:40.206Z,0.79
2022-12-08T07:31:15.874Z,0.89
2022-12-08T07:33:43.390Z,0.92
2022-12-08T07:36:10.557Z,0.91
2022-12-08T07:38:37.799Z,0.81
2022-12-08T07:41:05.108Z,0.78
2022-12-08T07:43:32.350Z,0.66
2022-12-08T07:45:59.963Z,0.62
2022-12-08T07:48:28.190Z,0.61
2022-12-08T07:51:02.700Z,0.63
2022-12-08T07:53:30.505Z,0.63
2022-12-08T07:55:57.869Z,0.71
2022-12-08T07:58:25.990Z,0.74
2022-12-08T08:00:53.577Z,0.72
2022-12-08T08:03:22.085Z,0.79
2022-12-08T08:05:50.159Z,0.78
2022-12-08T08:08:18.328Z,0.77
2022-12-08T08:10:47.289Z,0.79
2022-12-08T08:13:14.681Z,0.82
2022-12-08T08:15:41.999Z,0.87
2022-12-08T08:18:09.375Z,0.94
2022-12-08T08:20:36.595Z,0.91
2022-12-08T08:23:03.869Z,0.94
2022-12-08T08:25:31.092Z,0.98
2022-12-08T08:27:58.460Z,1.02
2022-12-08T08:30:25.864Z,1.15
2022-12-08T08:32:53.327Z,1.23
2022-12-08T08:35:20.520Z,1.59
2022-12-08T08:37:49.364Z,1.73
2022-12-08T08:40:17.969Z,1.69
2022-12-08T08:42:45.384Z,1.79
2022-12-08T08:45:12.619Z,1.67
2022-12-08T08:47:39.820Z,1.61
2022-12-08T08:50:07.899Z,1.58
2022-12-08T08:52:35.331Z,1.81
2022-12-08T08:55:02.483Z,1.77
2022-12-08T08:57:29.784Z,1.86
2022-12-08T08:59:57.145Z,1.91
2022-12-08T09:02:24.558Z,2.16
2022-12-08T09:04:52.377Z,2.41
2022-12-08T09:07:21.061Z,2.61
2022-12-08T09:09:48.496Z,2.99
2022-12-08T09:12:15.644Z,3.14
2022-12-08T09:14:42.856Z,3.72
2022-12-08T09:17:10.273Z,3.85
2022-12-08T09:19:37.638Z,4.08
2022-12-08T09:22:05.676Z,4.13
2022-12-08T09:24:32.880Z,4.45
2022-12-08T09:27:00.194Z,5.00
2022-12-08T09:29:32.548Z,4.85
2022-12-08T09:32:02.751Z,5.24
2022-12-08T09:34:31.311Z,5.74
2022-12-08T09:36:58.500Z,5.80
2022-12-08T09:39:25.719Z,6.13
2022-12-08T09:42:00.742Z,5.67
2022-12-08T09:44:50.236Z,5.14
2022-12-08T09:47:36.271Z,4.76
2022-12-08T09:50:07.801Z,4.95
2022-12-08T09:52:41.080Z,4.89
2022-12-08T09:55:32.272Z,4.52
2022-12-08T09:58:03.242Z,4.61
2022-12-08T10:00:30.943Z,4.66
2022-12-08T10:02:59.991Z,4.79
2022-12-08T10:05:30.047Z,4.90
2022-12-08T10:08:06.211Z,5.01
2022-12-08T10:10:46.195Z,4.76
2022-12-08T10:13:38.799Z,3.71
2022-12-08T10:16:28.152Z,3.87
2022-12-08T10:19:18.681Z,3.68
2022-12-08T10:21:46.394Z,3.50
2022-12-08T10:24:27.045Z,3.08
2022-12-08T10:26:55.909Z,3.24
2022-12-08T10:29:23.409Z,3.26
2022-12-08T10:31:50.773Z,3.37
2022-12-08T10:34:24.222Z,3.37
2022-12-08T10:36:57.183Z,3.27
2022-12-08T10:39:38.152Z,3.33
2022-12-08T10:42:14.278Z,3.27
2022-12-08T10:45:08.833Z,3.22
2022-12-08T10:47:42.511Z,3.06
2022-12-08T10:50:27.923Z,3.31
2022-12-08T10:53:01.777Z,3.76
2022-12-08T10:55:39.047Z,4.37
2022-12-08T10:58:06.298Z,4.61
2022-12-08T11:00:34.595Z,4.88
2022-12-08T11:03:04.364Z,4.81
2022-12-08T11:05:36.387Z,5.01
2022-12-08T11:08:06.035Z,5.07
2022-12-08T11:10:43.323Z,4.88
2022-12-08T11:13:26.877Z,4.54
2022-12-08T11:15:55.692Z,4.31
2022-12-08T11:18:39.238Z,4.19
2022-12-08T11:21:13.036Z,4.24
2022-12-08T11:23:42.091Z,4.14
2022-12-08T11:26:31.685Z,4.16
2022-12-08T11:28:59.183Z,4.50
2022-12-08T11:31:43.373Z,4.62
2022-12-08T11:34:20.109Z,4.71
2022-12-08T11:36:47.984Z,4.70
2022-12-08T11:39:15.417Z,4.52
2022-12-08T11:41:46.058Z,4.49
2022-12-08T11:44:38.431Z,4.39
2022-12-08T11:47:15.134Z,4.35
2022-12-08T11:49:43.337Z,4.46
2022-12-08T11:52:30.798Z,4.27
2022-12-08T11:55:49.681Z,3.84
2022-12-08T11:58:24.043Z,3.76
2022-12-08T12:00:51.300Z,3.66
2022-12-08T12:03:33.123Z,3.96
2022-12-08T12:06:23.903Z,3.95
2022-12-08T12:09:16.398Z,4.29
2022-12-08T12:12:19.308Z,4.43
2022-12-08T12:15:18.290Z,4.44
2022-12-08T12:17:52.562Z,4.18
2022-12-08T12:20:22.912Z,4.06
2022-12-08T12:22:56.568Z,4.27
2022-12-08T12:25:26.453Z,4.53
2022-12-08T12:27:58.917Z,4.46
2022-12-08T12:30:28.951Z,4.19
2022-12-08T12:33:01.533Z,4.18
2022-12-08T12:35:34.580Z,4.17
2022-12-08T12:38:46.745Z,4.38
2022-12-08T12:41:15.387Z,4.55
2022-12-08T12:44:09.153Z,4.59
2022-12-08T12:46:39.947Z,4.76
2022-12-08T12:49:38.124Z,4.46
2022-12-08T12:52:31.913Z,4.20
2022-12-08T12:54:59.134Z,4.06
2022-12-08T12:57:36.513Z,3.95
2022-12-08T13:00:03.829Z,3.70
2022-12-08T13:02:38.423Z,3.56
2022-12-08T13:05:11.353Z,3.64
2022-12-08T13:08:16.635Z,3.55
2022-12-08T13:11:01.136Z,3.54
2022-12-08T13:13:29.016Z,3.53
2022-12-08T13:15:59.131Z,3.55
2022-12-08T13:18:34.102Z,3.50
2022-12-08T13:21:06.094Z,3.40
2022-12-08T13:23:46.651Z,3.35
2022-12-08T13:26:21.468Z,3.40
2022-12-08T13:29:04.050Z,3.55
2022-12-08T13:31:50.638Z,3.66
2022-12-08T13:34:33.465Z,3.60
2022-12-08T13:37:15.930Z,3.52
2022-12-08T13:39:58.600Z,3.56
2022-12-08T13:42:51.501Z,3.51
2022-12-08T13:45:59.027Z,3.43
2022-12-08T13:48:30.151Z,3.48
2022-12-08T13:55:49.532Z,3.44
2022-12-08T13:57:29.177Z,3.43
2022-12-08T14:00:01.435Z,3.30
2022-12-08T14:02:46.995Z,3.14
2022-12-08T14:05:19.036Z,2.96
2022-12-08T14:07:49.368Z,2.91
2022-12-08T14:10:22.198Z,2.95
2022-12-08T14:12:55.915Z,2.87
2022-12-08T14:15:25.517Z,2.75
2022-12-08T14:17:56.041Z,2.91
2022-12-08T14:20:29.139Z,3.06
2022-12-08T14:22:59.675Z,3.13
2022-12-08T14:25:28.931Z,3.16
2022-12-08T14:28:02.056Z,3.09
2022-12-08T14:30:33.304Z,3.16
2022-12-08T14:33:03.802Z,3.03
2022-12-08T14:35:33.172Z,3.13
2022-12-08T14:38:01.469Z,2.98
2022-12-08T14:40:43.248Z,2.96
2022-12-08T14:43:10.614Z,2.92
2022-12-08T14:45:41.133Z,2.92
2022-12-08T14:48:39.209Z,2.75
2022-12-08T14:51:26.270Z,2.60
2022-12-08T14:54:00.312Z,2.71
2022-12-08T14:56:46.543Z,2.66
2022-12-08T14:59:30.332Z,2.54
2022-12-08T15:02:15.769Z,2.29
2022-12-08T15:04:46.123Z,2.26
2022-12-08T15:07:21.649Z,2.23
2022-12-08T15:10:06.046Z,2.10
2022-12-08T15:12:34.320Z,2.07
2022-12-08T15:15:15.459Z,1.96
2022-12-08T15:17:51.670Z,1.91
2022-12-08T15:20:39.336Z,1.93
2022-12-08T15:23:19.296Z,1.78
2022-12-08T15:25:46.677Z,1.58
2022-12-08T15:28:15.801Z,1.50
2022-12-08T15:30:43.192Z,1.57
2022-12-08T15:33:10.512Z,1.55
2022-12-08T15:35:40.978Z,1.58
2022-12-08T15:38:23.742Z,1.59
2022-12-08T15:40:55.413Z,1.46
2022-12-08T15:43:23.068Z,1.47
2022-12-08T15:45:59.025Z,1.54
2022-12-08T15:48:31.094Z,1.58
2022-12-08T15:50:58.723Z,1.55
2022-12-08T15:53:26.215Z,1.40
2022-12-08T15:56:25.633Z,1.42
2022-12-08T15:58:57.696Z,1.57
2022-12-08T16:01:26.439Z,1.65
2022-12-08T16:07:19.845Z,1.67
2022-12-08T16:09:36.298Z,1.54
2022-12-08T16:12:23.687Z,1.55
2022-12-08T16:17:40.382Z,1.47
2022-12-08T16:20:12.538Z,1.54
2022-12-08T16:23:03.734Z,1.61
2022-12-08T16:25:36.397Z,1.77
2022-12-08T16:28:45.354Z,1.65
2022-12-08T16:31:01.268Z,1.72
2022-12-08T16:33:28.520Z,1.50
2022-12-08T16:35:55.889Z,1.51
2022-12-08T16:38:23.158Z,1.62
2022-12-08T16:41:08.997Z,1.83
2022-12-08T16:43:36.608Z,1.85
2022-12-08T16:46:04.187Z,1.82
2022-12-08T16:48:31.629Z,1.82
2022-12-08T16:50:58.836Z,1.84
2022-12-08T16:53:26.230Z,1.83
2022-12-08T16:55:53.455Z,1.85
2022-12-08T16:58:20.641Z,1.87
2022-12-08T17:00:48.174Z,1.89
2022-12-08T17:03:17.039Z,1.89
2022-12-08T17:05:44.423Z,1.88
2022-12-08T17:08:13.249Z,1.83
2022-12-08T17:10:41.804Z,1.84
2022-12-08T17:13:09.548Z,1.88
2022-12-08T17:15:36.803Z,1.78
2022-12-08T17:18:04.152Z,1.64
2022-12-08T17:20:31.404Z,1.88
2022-12-08T17:22:58.909Z,1.84
2022-12-08T17:25:27.332Z,1.85
2022-12-08T17:27:56.322Z,1.68
2022-12-08T17:30:23.677Z,1.69
2022-12-08T17:32:52.790Z,1.83
2022-12-08T17:35:20.289Z,1.81
2022-12-08T17:37:47.572Z,1.83
2022-12-08T17:40:15.139Z,1.92
2022-12-08T17:42:42.473Z,1.84
2022-12-08T17:45:10.345Z,1.78
2022-12-08T17:47:37.783Z,1.84
2022-12-08T17:50:06.750Z,1.93
2022-12-08T17:52:34.262Z,1.84
2022-12-08T17:55:01.536Z,1.83
2022-12-08T17:57:28.680Z,1.81
2022-12-08T17:59:56.025Z,1.89
2022-12-08T18:02:23.466Z,1.79
2022-12-08T18:04:50.734Z,1.75
2022-12-08T18:07:18.042Z,1.75
2022-12-08T18:09:45.325Z,1.66
2022-12-08T18:12:12.542Z,1.66
2022-12-08T18:14:39.896Z,1.61
2022-12-08T18:17:12.476Z,1.69
2022-12-08T18:19:39.768Z,1.79
2022-12-08T18:22:06.934Z,1.80
2022-12-08T18:24:34.209Z,1.74
2022-12-08T18:27:01.608Z,1.85
2022-12-08T18:29:28.794Z,1.82
2022-12-08T18:31:56.092Z,1.83
2022-12-08T18:34:24.539Z,1.86
2022-12-08T18:36:52.794Z,1.85
2022-12-08T18:39:29.370Z,1.85
2022-12-08T18:41:58.826Z,1.82
2022-12-08T18:44:26.129Z,1.79
2022-12-08T18:46:53.274Z,1.87
2022-12-08T18:49:20.789Z,1.83
2022-12-08T18:51:48.242Z,1.84
2022-12-08T18:54:15.455Z,1.81
2022-12-08T18:56:42.588Z,1.72
2022-12-08T18:59:12.029Z,1.72
2022-12-08T19:01:40.662Z,1.75
2022-12-08T19:04:27.975Z,1.78
2022-12-08T19:06:56.924Z,1.76
2022-12-08T19:09:26.659Z,1.78
2022-12-08T19:11:53.937Z,1.68
2022-12-08T19:14:27.824Z,1.78
2022-12-08T19:16:58.862Z,1.87
2022-12-08T19:19:27.436Z,1.89
2022-12-08T19:21:54.874Z,1.85
2022-12-08T19:24:22.276Z,1.87
2022-12-08T19:26:49.948Z,1.90
2022-12-08T19:29:17.597Z,1.82
2022-12-08T19:31:45.609Z,1.93
2022-12-08T19:34:14.329Z,1.99
2022-12-08T19:36:43.075Z,1.90
2022-12-08T19:39:35.562Z,2.01
2022-12-08T19:42:21.731Z,2.06
2022-12-08T19:44:54.826Z,2.02
2022-12-08T19:47:27.144Z,1.81
2022-12-08T19:50:15.456Z,1.86
2022-12-08T19:52:43.853Z,1.83
2022-12-08T19:55:11.839Z,1.90
2022-12-08T19:57:44.922Z,1.82
2022-12-08T20:00:12.989Z,1.95
2022-12-08T20:02:40.187Z,1.79
2022-12-08T20:05:08.696Z,1.81
2022-12-08T20:07:39.837Z,1.78
2022-12-08T20:10:28.911Z,1.75
2022-12-08T20:13:16.628Z,1.83
2022-12-08T20:15:44.656Z,1.69
2022-12-08T20:18:13.789Z,1.61
2022-12-08T20:20:41.966Z,1.60
2022-12-08T20:23:09.591Z,1.52
2022-12-08T20:25:42.436Z,1.47
2022-12-08T20:28:10.460Z,1.44
2022-12-08T20:30:42.727Z,1.43
2022-12-08T20:33:13.272Z,1.41
2022-12-08T20:35:40.911Z,1.36
2022-12-08T20:38:08.249Z,1.25
2022-12-08T20:40:35.459Z,1.17
2022-12-08T20:43:02.643Z,1.01
2022-12-08T20:45:29.799Z,0.95
2022-12-08T20:47:56.963Z,0.88
2022-12-08T20:50:24.232Z,0.87
2022-12-08T20:52:51.743Z,0.85
2022-12-08T20:55:19.092Z,0.82
2022-12-08T20:57:46.302Z,0.82
2022-12-08T21:00:13.954Z,0.78
2022-12-08T21:02:47.729Z,0.70
2022-12-08T21:05:17.187Z,0.65
2022-12-08T21:07:44.524Z,0.66
2022-12-08T21:10:12.365Z,0.63
2022-12-08T21:12:39.639Z,0.63
2022-12-08T21:15:07.769Z,0.62
2022-12-08T21:17:35.261Z,0.59
2022-12-08T21:20:02.793Z,0.60
2022-12-08T21:22:30.026Z,0.62
2022-12-08T21:24:57.255Z,0.56
2022-12-08T21:27:24.385Z,0.53
2022-12-08T21:29:51.693Z,0.55
2022-12-08T21:32:18.879Z,0.52
2022-12-08T21:34:46.220Z,0.54
2022-12-08T21:37:13.376Z,0.61
2022-12-08T21:39:40.533Z,0.61
2022-12-08T21:42:32.291Z,0.62
2022-12-08T21:45:01.337Z,0.65
2022-12-08T21:47:28.629Z,0.69
2022-12-08T21:49:57.026Z,0.66
2022-12-08T21:52:24.225Z,0.63
2022-12-08T21:54:51.477Z,0.61
2022-12-08T21:57:18.682Z,0.62
2022-12-08T21:59:45.934Z,0.59
2022-12-08T22:02:19.421Z,0.56
2022-12-08T22:04:50.020Z,0.51
2022-12-08T22:07:17.447Z,0.51
2022-12-08T22:09:45.159Z,0.53
2022-12-08T22:12:12.360Z,0.64
2022-12-08T22:14:40.409Z,0.55
2022-12-08T22:17:07.950Z,0.48
2022-12-08T22:19:35.496Z,0.40
2022-12-08T22:22:03.564Z,0.42
2022-12-08T22:24:36.408Z,0.38
2022-12-08T22:27:04.334Z,0.40
2022-12-08T22:29:32.330Z,0.39
2022-12-08T22:32:02.618Z,0.40
2022-12-08T22:34:30.050Z,0.40
2022-12-08T22:36:57.608Z,0.45
2022-12-08T22:39:24.996Z,0.45
2022-12-08T22:41:52.608Z,0.43
2022-12-08T22:44:20.147Z,0.45
2022-12-08T22:46:47.486Z,0.49
2022-12-08T22:49:15.202Z,0.45
2022-12-08T22:51:42.723Z,0.48
2022-12-08T22:54:12.014Z,0.50
2022-12-08T22:56:39.289Z,0.52
2022-12-08T22:59:06.655Z,0.54
2022-12-08T23:01:34.126Z,0.60
2022-12-08T23:04:02.120Z,0.62
2022-12-08T23:06:30.318Z,0.61
2022-12-08T23:09:03.160Z,0.56
2022-12-08T23:11:35.898Z,0.58
2022-12-08T23:14:03.423Z,0.60
2022-12-08T23:16:30.826Z,0.51
2022-12-08T23:18:59.169Z,0.50
2022-12-08T23:21:26.479Z,0.52
2022-12-08T23:23:53.656Z,0.53
2022-12-08T23:26:22.951Z,0.53
2022-12-08T23:28:50.264Z,0.49
2022-12-08T23:31:18.275Z,0.47
2022-12-08T23:33:45.810Z,0.45
2022-12-08T23:36:14.283Z,0.48
2022-12-08T23:38:42.732Z,0.48
2022-12-08T23:41:12.464Z,0.42
2022-12-08T23:43:48.506Z,0.43
2022-12-08T23:46:17.820Z,0.46
2022-12-08T23:48:46.027Z,0.38
2022-12-08T23:51:14.055Z,0.41
2022-12-08T23:53:41.656Z,0.45
2022-12-08T23:56:11.702Z,0.47
2022-12-08T23:58:40.195Z,0.47
